sensor_id;sensor_type;location;lat;lon;timestamp;P1;durP1;ratioP1;P2;durP2;ratioP2
59846;SDS011;45728;48.788;2.302;2022-11-20T00:01:08;8.75;;;5.82;;
59846;SDS011;45728;48.788;2.302;2022-11-20T00:03:35;8.38;;;5.20;;
59846;SDS011;45728;48.788;2.302;2022-11-20T00:06:02;9.23;;;5.10;;
59846;SDS011;45728;48.788;2.302;2022-11-20T00:08:29;10.32;;;5.60;;
59846;SDS011;45728;48.788;2.302;2022-11-20T00:10:55;9.77;;;4.88;;
59846;SDS011;45728;48.788;2.302;2022-11-20T00:13:21;9.88;;;5.03;;
59846;SDS011;45728;48.788;2.302;2022-11-20T00:15:47;8.20;;;4.53;;
59846;SDS011;45728;48.788;2.302;2022-11-20T00:18:13;7.43;;;4.53;;
59846;SDS011;45728;48.788;2.302;2022-11-20T00:20:39;7.75;;;4.82;;
59846;SDS011;45728;48.788;2.302;2022-11-20T00:23:05;10.18;;;4.75;;
59846;SDS011;45728;48.788;2.302;2022-11-20T00:25:35;10.80;;;4.53;;
59846;SDS011;45728;48.788;2.302;2022-11-20T00:28:01;8.00;;;4.27;;
59846;SDS011;45728;48.788;2.302;2022-11-20T00:30:27;10.80;;;4.80;;
59846;SDS011;45728;48.788;2.302;2022-11-20T00:32:53;6.97;;;4.15;;
59846;SDS011;45728;48.788;2.302;2022-11-20T00:35:22;10.63;;;4.50;;
59846;SDS011;45728;48.788;2.302;2022-11-20T00:37:48;7.70;;;4.35;;
59846;SDS011;45728;48.788;2.302;2022-11-20T00:40:14;7.60;;;4.72;;
59846;SDS011;45728;48.788;2.302;2022-11-20T00:42:40;8.55;;;4.47;;
59846;SDS011;45728;48.788;2.302;2022-11-20T00:45:06;7.75;;;4.25;;
59846;SDS011;45728;48.788;2.302;2022-11-20T00:47:32;11.23;;;4.72;;
59846;SDS011;45728;48.788;2.302;2022-11-20T00:49:58;7.57;;;4.32;;
59846;SDS011;45728;48.788;2.302;2022-11-20T00:52:24;9.32;;;4.47;;
59846;SDS011;45728;48.788;2.302;2022-11-20T00:54:50;9.18;;;4.10;;
59846;SDS011;45728;48.788;2.302;2022-11-20T00:57:16;7.00;;;3.85;;
59846;SDS011;45728;48.788;2.302;2022-11-20T00:59:42;10.90;;;4.63;;
59846;SDS011;45728;48.788;2.302;2022-11-20T01:02:08;8.82;;;3.88;;
59846;SDS011;45728;48.788;2.302;2022-11-20T01:04:34;7.72;;;4.10;;
59846;SDS011;45728;48.788;2.302;2022-11-20T01:07:00;8.45;;;3.80;;
59846;SDS011;45728;48.788;2.302;2022-11-20T01:09:26;10.15;;;3.78;;
59846;SDS011;45728;48.788;2.302;2022-11-20T01:11:52;9.07;;;3.97;;
59846;SDS011;45728;48.788;2.302;2022-11-20T01:14:19;7.75;;;3.83;;
59846;SDS011;45728;48.788;2.302;2022-11-20T01:16:47;7.32;;;3.90;;
59846;SDS011;45728;48.788;2.302;2022-11-20T01:19:19;6.40;;;3.80;;
59846;SDS011;45728;48.788;2.302;2022-11-20T01:21:50;9.95;;;4.13;;
59846;SDS011;45728;48.788;2.302;2022-11-20T01:24:19;10.27;;;3.63;;
59846;SDS011;45728;48.788;2.302;2022-11-20T01:26:47;7.53;;;3.85;;
59846;SDS011;45728;48.788;2.302;2022-11-20T01:29:16;8.47;;;3.47;;
59846;SDS011;45728;48.788;2.302;2022-11-20T01:31:44;9.30;;;3.47;;
59846;SDS011;45728;48.788;2.302;2022-11-20T01:34:11;8.73;;;4.10;;
59846;SDS011;45728;48.788;2.302;2022-11-20T01:36:39;7.20;;;3.70;;
59846;SDS011;45728;48.788;2.302;2022-11-20T01:41:43;9.57;;;3.70;;
59846;SDS011;45728;48.788;2.302;2022-11-20T01:47:29;9.27;;;3.85;;
59846;SDS011;45728;48.788;2.302;2022-11-20T01:55:17;11.60;;;3.75;;
59846;SDS011;45728;48.788;2.302;2022-11-20T01:57:46;6.57;;;3.22;;
59846;SDS011;45728;48.788;2.302;2022-11-20T02:00:14;10.07;;;3.90;;
59846;SDS011;45728;48.788;2.302;2022-11-20T02:02:53;7.28;;;3.83;;
59846;SDS011;45728;48.788;2.302;2022-11-20T02:05:32;9.40;;;4.53;;
59846;SDS011;45728;48.788;2.302;2022-11-20T02:08:07;7.35;;;3.58;;
59846;SDS011;45728;48.788;2.302;2022-11-20T02:10:33;8.75;;;3.90;;
59846;SDS011;45728;48.788;2.302;2022-11-20T02:13:00;6.75;;;3.55;;
59846;SDS011;45728;48.788;2.302;2022-11-20T02:15:44;8.23;;;2.92;;
59846;SDS011;45728;48.788;2.302;2022-11-20T02:18:11;6.43;;;3.30;;
59846;SDS011;45728;48.788;2.302;2022-11-20T02:20:44;6.70;;;3.28;;
59846;SDS011;45728;48.788;2.302;2022-11-20T02:23:12;7.88;;;3.30;;
59846;SDS011;45728;48.788;2.302;2022-11-20T02:25:46;6.20;;;3.17;;
59846;SDS011;45728;48.788;2.302;2022-11-20T02:28:13;6.10;;;3.42;;
59846;SDS011;45728;48.788;2.302;2022-11-20T02:30:40;5.25;;;2.90;;
59846;SDS011;45728;48.788;2.302;2022-11-20T02:33:06;8.68;;;3.47;;
59846;SDS011;45728;48.788;2.302;2022-11-20T02:37:59;7.03;;;3.28;;
59846;SDS011;45728;48.788;2.302;2022-11-20T02:40:28;8.57;;;3.08;;
59846;SDS011;45728;48.788;2.302;2022-11-20T02:42:54;8.93;;;3.38;;
59846;SDS011;45728;48.788;2.302;2022-11-20T02:45:21;6.32;;;2.88;;
59846;SDS011;45728;48.788;2.302;2022-11-20T02:47:48;11.10;;;3.13;;
59846;SDS011;45728;48.788;2.302;2022-11-20T02:50:14;6.70;;;3.17;;
59846;SDS011;45728;48.788;2.302;2022-11-20T02:52:41;4.97;;;2.92;;
59846;SDS011;45728;48.788;2.302;2022-11-20T02:55:07;7.30;;;2.90;;
59846;SDS011;45728;48.788;2.302;2022-11-20T02:57:33;5.60;;;2.88;;
59846;SDS011;45728;48.788;2.302;2022-11-20T02:59:59;8.32;;;3.55;;
59846;SDS011;45728;48.788;2.302;2022-11-20T03:02:29;10.23;;;3.00;;
59846;SDS011;45728;48.788;2.302;2022-11-20T03:04:55;7.03;;;2.88;;
59846;SDS011;45728;48.788;2.302;2022-11-20T03:07:21;8.25;;;3.03;;
59846;SDS011;45728;48.788;2.302;2022-11-20T03:09:48;6.10;;;2.90;;
59846;SDS011;45728;48.788;2.302;2022-11-20T03:12:14;4.55;;;2.53;;
59846;SDS011;45728;48.788;2.302;2022-11-20T03:17:24;6.32;;;3.03;;
59846;SDS011;45728;48.788;2.302;2022-11-20T03:19:51;7.65;;;3.13;;
59846;SDS011;45728;48.788;2.302;2022-11-20T03:22:17;6.18;;;2.95;;
59846;SDS011;45728;48.788;2.302;2022-11-20T03:24:43;8.45;;;3.30;;
59846;SDS011;45728;48.788;2.302;2022-11-20T03:27:09;7.93;;;3.00;;
59846;SDS011;45728;48.788;2.302;2022-11-20T03:29:35;8.57;;;3.15;;
59846;SDS011;45728;48.788;2.302;2022-11-20T03:32:02;6.57;;;2.90;;
59846;SDS011;45728;48.788;2.302;2022-11-20T03:34:28;7.88;;;3.05;;
59846;SDS011;45728;48.788;2.302;2022-11-20T03:36:54;5.65;;;3.08;;
59846;SDS011;45728;48.788;2.302;2022-11-20T03:39:20;9.45;;;3.20;;
59846;SDS011;45728;48.788;2.302;2022-11-20T03:41:46;6.20;;;2.75;;
59846;SDS011;45728;48.788;2.302;2022-11-20T03:44:12;5.78;;;2.72;;
59846;SDS011;45728;48.788;2.302;2022-11-20T03:46:38;4.72;;;2.50;;
59846;SDS011;45728;48.788;2.302;2022-11-20T03:49:04;7.15;;;3.08;;
59846;SDS011;45728;48.788;2.302;2022-11-20T03:51:31;4.65;;;1.60;;
59846;SDS011;45728;48.788;2.302;2022-11-20T03:54:00;6.97;;;3.15;;
59846;SDS011;45728;48.788;2.302;2022-11-20T03:56:30;6.63;;;2.85;;
59846;SDS011;45728;48.788;2.302;2022-11-20T03:58:58;6.95;;;3.40;;
59846;SDS011;45728;48.788;2.302;2022-11-20T04:01:25;10.30;;;3.25;;
59846;SDS011;45728;48.788;2.302;2022-11-20T04:04:02;7.43;;;3.00;;
59846;SDS011;45728;48.788;2.302;2022-11-20T04:06:30;8.05;;;3.15;;
59846;SDS011;45728;48.788;2.302;2022-11-20T04:08:59;6.65;;;3.15;;
59846;SDS011;45728;48.788;2.302;2022-11-20T04:11:27;8.45;;;3.15;;
59846;SDS011;45728;48.788;2.302;2022-11-20T04:13:55;5.03;;;2.70;;
59846;SDS011;45728;48.788;2.302;2022-11-20T04:16:23;5.63;;;2.95;;
59846;SDS011;45728;48.788;2.302;2022-11-20T04:18:54;6.15;;;2.95;;
59846;SDS011;45728;48.788;2.302;2022-11-20T04:21:22;9.43;;;2.97;;
59846;SDS011;45728;48.788;2.302;2022-11-20T04:23:49;3.45;;;1.70;;
59846;SDS011;45728;48.788;2.302;2022-11-20T04:26:16;5.55;;;2.72;;
59846;SDS011;45728;48.788;2.302;2022-11-20T04:28:42;6.88;;;2.67;;
59846;SDS011;45728;48.788;2.302;2022-11-20T04:31:09;7.10;;;1.60;;
59846;SDS011;45728;48.788;2.302;2022-11-20T04:33:38;6.35;;;2.92;;
59846;SDS011;45728;48.788;2.302;2022-11-20T04:36:10;5.30;;;2.97;;
59846;SDS011;45728;48.788;2.302;2022-11-20T04:38:40;10.45;;;3.50;;
59846;SDS011;45728;48.788;2.302;2022-11-20T04:41:07;8.63;;;3.30;;
59846;SDS011;45728;48.788;2.302;2022-11-20T04:43:38;5.97;;;3.03;;
59846;SDS011;45728;48.788;2.302;2022-11-20T04:46:04;5.13;;;2.78;;
59846;SDS011;45728;48.788;2.302;2022-11-20T04:48:30;9.38;;;3.03;;
59846;SDS011;45728;48.788;2.302;2022-11-20T04:50:56;6.45;;;2.90;;
59846;SDS011;45728;48.788;2.302;2022-11-20T04:53:22;5.72;;;3.03;;
59846;SDS011;45728;48.788;2.302;2022-11-20T04:55:49;7.32;;;3.25;;
59846;SDS011;45728;48.788;2.302;2022-11-20T04:58:15;7.60;;;3.35;;
59846;SDS011;45728;48.788;2.302;2022-11-20T05:00:42;6.30;;;1.75;;
59846;SDS011;45728;48.788;2.302;2022-11-20T05:03:08;7.18;;;3.30;;
59846;SDS011;45728;48.788;2.302;2022-11-20T05:05:34;12.02;;;1.88;;
59846;SDS011;45728;48.788;2.302;2022-11-20T05:08:00;6.32;;;3.17;;
59846;SDS011;45728;48.788;2.302;2022-11-20T05:10:27;8.88;;;3.13;;
59846;SDS011;45728;48.788;2.302;2022-11-20T05:12:53;8.30;;;3.38;;
59846;SDS011;45728;48.788;2.302;2022-11-20T05:15:19;5.85;;;3.42;;
59846;SDS011;45728;48.788;2.302;2022-11-20T05:17:48;6.60;;;3.30;;
59846;SDS011;45728;48.788;2.302;2022-11-20T05:20:15;7.97;;;3.83;;
59846;SDS011;45728;48.788;2.302;2022-11-20T05:22:42;5.20;;;3.13;;
59846;SDS011;45728;48.788;2.302;2022-11-20T05:25:08;6.50;;;3.33;;
59846;SDS011;45728;48.788;2.302;2022-11-20T05:27:35;7.90;;;3.15;;
59846;SDS011;45728;48.788;2.302;2022-11-20T05:30:01;7.45;;;3.10;;
59846;SDS011;45728;48.788;2.302;2022-11-20T05:32:29;6.13;;;3.35;;
59846;SDS011;45728;48.788;2.302;2022-11-20T05:34:55;7.40;;;3.42;;
59846;SDS011;45728;48.788;2.302;2022-11-20T05:37:21;9.50;;;3.50;;
59846;SDS011;45728;48.788;2.302;2022-11-20T05:39:47;7.03;;;3.45;;
59846;SDS011;45728;48.788;2.302;2022-11-20T05:42:13;9.98;;;4.07;;
59846;SDS011;45728;48.788;2.302;2022-11-20T05:45:00;8.32;;;2.70;;
59846;SDS011;45728;48.788;2.302;2022-11-20T05:47:31;6.90;;;3.60;;
59846;SDS011;45728;48.788;2.302;2022-11-20T05:49:58;7.07;;;3.42;;
59846;SDS011;45728;48.788;2.302;2022-11-20T05:52:24;7.47;;;3.97;;
59846;SDS011;45728;48.788;2.302;2022-11-20T05:54:54;6.40;;;4.18;;
59846;SDS011;45728;48.788;2.302;2022-11-20T05:57:20;8.13;;;4.60;;
59846;SDS011;45728;48.788;2.302;2022-11-20T05:59:46;6.95;;;4.45;;
59846;SDS011;45728;48.788;2.302;2022-11-20T06:02:12;8.82;;;4.45;;
59846;SDS011;45728;48.788;2.302;2022-11-20T06:04:38;12.70;;;5.80;;
59846;SDS011;45728;48.788;2.302;2022-11-20T06:07:04;11.48;;;5.55;;
59846;SDS011;45728;48.788;2.302;2022-11-20T06:09:31;10.15;;;5.60;;
59846;SDS011;45728;48.788;2.302;2022-11-20T06:11:57;8.35;;;5.43;;
59846;SDS011;45728;48.788;2.302;2022-11-20T06:14:23;10.52;;;5.20;;
59846;SDS011;45728;48.788;2.302;2022-11-20T06:16:49;9.88;;;5.35;;
59846;SDS011;45728;48.788;2.302;2022-11-20T06:19:15;8.57;;;4.53;;
59846;SDS011;45728;48.788;2.302;2022-11-20T06:21:42;14.07;;;4.88;;
59846;SDS011;45728;48.788;2.302;2022-11-20T06:24:10;10.15;;;5.18;;
59846;SDS011;45728;48.788;2.302;2022-11-20T06:26:36;9.20;;;5.18;;
59846;SDS011;45728;48.788;2.302;2022-11-20T06:29:03;10.15;;;5.15;;
59846;SDS011;45728;48.788;2.302;2022-11-20T06:31:29;13.35;;;5.55;;
59846;SDS011;45728;48.788;2.302;2022-11-20T06:33:55;8.00;;;3.45;;
59846;SDS011;45728;48.788;2.302;2022-11-20T06:36:21;10.55;;;4.72;;
59846;SDS011;45728;48.788;2.302;2022-11-20T06:38:48;7.57;;;4.78;;
59846;SDS011;45728;48.788;2.302;2022-11-20T06:41:15;9.65;;;4.70;;
59846;SDS011;45728;48.788;2.302;2022-11-20T06:43:43;6.97;;;4.95;;
59846;SDS011;45728;48.788;2.302;2022-11-20T06:46:10;7.93;;;4.78;;
59846;SDS011;45728;48.788;2.302;2022-11-20T06:48:37;9.82;;;5.30;;
59846;SDS011;45728;48.788;2.302;2022-11-20T06:51:04;7.80;;;5.20;;
59846;SDS011;45728;48.788;2.302;2022-11-20T06:53:31;12.80;;;5.45;;
59846;SDS011;45728;48.788;2.302;2022-11-20T06:55:58;10.20;;;6.05;;
59846;SDS011;45728;48.788;2.302;2022-11-20T06:58:28;10.93;;;6.90;;
59846;SDS011;45728;48.788;2.302;2022-11-20T07:01:00;8.40;;;5.80;;
59846;SDS011;45728;48.788;2.302;2022-11-20T07:03:27;11.82;;;6.55;;
59846;SDS011;45728;48.788;2.302;2022-11-20T07:05:56;10.95;;;6.45;;
59846;SDS011;45728;48.788;2.302;2022-11-20T07:08:23;11.95;;;6.13;;
59846;SDS011;45728;48.788;2.302;2022-11-20T07:10:50;10.35;;;5.72;;
59846;SDS011;45728;48.788;2.302;2022-11-20T07:13:16;9.90;;;6.13;;
59846;SDS011;45728;48.788;2.302;2022-11-20T07:15:42;9.18;;;5.97;;
59846;SDS011;45728;48.788;2.302;2022-11-20T07:18:08;7.60;;;5.28;;
59846;SDS011;45728;48.788;2.302;2022-11-20T07:20:34;9.63;;;5.60;;
59846;SDS011;45728;48.788;2.302;2022-11-20T07:23:00;8.18;;;4.82;;
59846;SDS011;45728;48.788;2.302;2022-11-20T07:25:27;6.88;;;4.38;;
59846;SDS011;45728;48.788;2.302;2022-11-20T07:27:57;8.55;;;4.90;;
59846;SDS011;45728;48.788;2.302;2022-11-20T07:30:24;9.77;;;4.78;;
59846;SDS011;45728;48.788;2.302;2022-11-20T07:33:09;8.65;;;4.47;;
59846;SDS011;45728;48.788;2.302;2022-11-20T07:35:35;12.52;;;4.60;;
59846;SDS011;45728;48.788;2.302;2022-11-20T07:38:01;11.57;;;4.82;;
59846;SDS011;45728;48.788;2.302;2022-11-20T07:40:27;12.60;;;5.22;;
59846;SDS011;45728;48.788;2.302;2022-11-20T07:42:54;10.18;;;4.60;;
59846;SDS011;45728;48.788;2.302;2022-11-20T07:45:21;9.60;;;4.68;;
59846;SDS011;45728;48.788;2.302;2022-11-20T07:47:48;10.32;;;4.30;;
59846;SDS011;45728;48.788;2.302;2022-11-20T07:50:14;8.10;;;4.93;;
59846;SDS011;45728;48.788;2.302;2022-11-20T07:52:41;10.48;;;5.15;;
59846;SDS011;45728;48.788;2.302;2022-11-20T07:55:08;10.52;;;4.28;;
59846;SDS011;45728;48.788;2.302;2022-11-20T07:57:34;7.78;;;4.25;;
59846;SDS011;45728;48.788;2.302;2022-11-20T08:00:01;8.50;;;5.15;;
59846;SDS011;45728;48.788;2.302;2022-11-20T08:02:28;8.40;;;4.70;;
59846;SDS011;45728;48.788;2.302;2022-11-20T08:04:54;12.20;;;4.93;;
59846;SDS011;45728;48.788;2.302;2022-11-20T08:07:20;8.90;;;4.90;;
59846;SDS011;45728;48.788;2.302;2022-11-20T08:09:46;7.47;;;4.60;;
59846;SDS011;45728;48.788;2.302;2022-11-20T08:12:19;9.68;;;5.25;;
59846;SDS011;45728;48.788;2.302;2022-11-20T08:15:05;6.80;;;4.45;;
59846;SDS011;45728;48.788;2.302;2022-11-20T08:17:32;8.60;;;4.30;;
59846;SDS011;45728;48.788;2.302;2022-11-20T08:19:58;7.80;;;3.85;;
59846;SDS011;45728;48.788;2.302;2022-11-20T08:22:24;8.93;;;4.55;;
59846;SDS011;45728;48.788;2.302;2022-11-20T08:24:50;6.78;;;4.90;;
59846;SDS011;45728;48.788;2.302;2022-11-20T08:27:16;9.07;;;4.82;;
59846;SDS011;45728;48.788;2.302;2022-11-20T08:29:42;11.50;;;4.40;;
59846;SDS011;45728;48.788;2.302;2022-11-20T08:32:08;9.30;;;4.82;;
59846;SDS011;45728;48.788;2.302;2022-11-20T08:34:34;8.40;;;4.68;;
59846;SDS011;45728;48.788;2.302;2022-11-20T08:37:01;10.15;;;5.45;;
59846;SDS011;45728;48.788;2.302;2022-11-20T08:39:28;10.20;;;5.28;;
59846;SDS011;45728;48.788;2.302;2022-11-20T08:41:54;9.05;;;5.50;;
59846;SDS011;45728;48.788;2.302;2022-11-20T08:44:20;11.05;;;5.78;;
59846;SDS011;45728;48.788;2.302;2022-11-20T08:46:46;10.80;;;5.28;;
59846;SDS011;45728;48.788;2.302;2022-11-20T08:49:13;8.95;;;5.65;;
59846;SDS011;45728;48.788;2.302;2022-11-20T08:51:40;9.25;;;5.85;;
59846;SDS011;45728;48.788;2.302;2022-11-20T08:54:07;8.60;;;5.30;;
59846;SDS011;45728;48.788;2.302;2022-11-20T08:56:33;9.18;;;6.25;;
59846;SDS011;45728;48.788;2.302;2022-11-20T08:59:00;9.20;;;5.43;;
59846;SDS011;45728;48.788;2.302;2022-11-20T09:01:26;13.00;;;5.97;;
59846;SDS011;45728;48.788;2.302;2022-11-20T09:03:54;8.80;;;6.10;;
59846;SDS011;45728;48.788;2.302;2022-11-20T09:06:22;10.60;;;6.00;;
59846;SDS011;45728;48.788;2.302;2022-11-20T09:08:51;11.25;;;5.85;;
59846;SDS011;45728;48.788;2.302;2022-11-20T09:11:18;10.77;;;5.88;;
59846;SDS011;45728;48.788;2.302;2022-11-20T09:13:44;15.52;;;6.15;;
59846;SDS011;45728;48.788;2.302;2022-11-20T09:16:10;11.20;;;6.10;;
59846;SDS011;45728;48.788;2.302;2022-11-20T09:18:36;14.43;;;6.38;;
59846;SDS011;45728;48.788;2.302;2022-11-20T09:21:04;11.30;;;6.70;;
59846;SDS011;45728;48.788;2.302;2022-11-20T09:23:33;9.75;;;6.78;;
59846;SDS011;45728;48.788;2.302;2022-11-20T09:26:01;10.68;;;6.22;;
59846;SDS011;45728;48.788;2.302;2022-11-20T09:28:31;11.40;;;6.85;;
59846;SDS011;45728;48.788;2.302;2022-11-20T09:30:58;11.73;;;7.22;;
59846;SDS011;45728;48.788;2.302;2022-11-20T09:33:24;10.43;;;6.82;;
59846;SDS011;45728;48.788;2.302;2022-11-20T09:35:51;10.68;;;7.05;;
59846;SDS011;45728;48.788;2.302;2022-11-20T09:38:17;11.75;;;6.90;;
59846;SDS011;45728;48.788;2.302;2022-11-20T09:40:44;13.95;;;7.38;;
59846;SDS011;45728;48.788;2.302;2022-11-20T09:43:46;12.27;;;7.10;;
59846;SDS011;45728;48.788;2.302;2022-11-20T09:46:26;13.15;;;7.47;;
59846;SDS011;45728;48.788;2.302;2022-11-20T09:49:13;10.63;;;6.95;;
59846;SDS011;45728;48.788;2.302;2022-11-20T09:54:18;12.27;;;7.18;;
59846;SDS011;45728;48.788;2.302;2022-11-20T09:56:47;12.93;;;7.30;;
59846;SDS011;45728;48.788;2.302;2022-11-20T10:02:01;9.70;;;5.72;;
59846;SDS011;45728;48.788;2.302;2022-11-20T10:04:31;10.90;;;6.15;;
59846;SDS011;45728;48.788;2.302;2022-11-20T10:07:42;8.25;;;5.03;;
59846;SDS011;45728;48.788;2.302;2022-11-20T10:09:53;10.20;;;5.38;;
59846;SDS011;45728;48.788;2.302;2022-11-20T10:12:36;9.68;;;5.57;;
59846;SDS011;45728;48.788;2.302;2022-11-20T10:15:11;10.10;;;5.20;;
59846;SDS011;45728;48.788;2.302;2022-11-20T10:20:29;9.75;;;4.97;;
59846;SDS011;45728;48.788;2.302;2022-11-20T10:25:56;8.82;;;4.47;;
59846;SDS011;45728;48.788;2.302;2022-11-20T10:29:27;9.05;;;5.13;;
59846;SDS011;45728;48.788;2.302;2022-11-20T10:31:39;7.68;;;4.88;;
59846;SDS011;45728;48.788;2.302;2022-11-20T10:36:55;7.60;;;4.45;;
59846;SDS011;45728;48.788;2.302;2022-11-20T10:42:37;7.43;;;4.18;;
59846;SDS011;45728;48.788;2.302;2022-11-20T10:45:28;7.07;;;4.40;;
59846;SDS011;45728;48.788;2.302;2022-11-20T10:48:22;5.57;;;3.90;;
59846;SDS011;45728;48.788;2.302;2022-11-20T10:56:40;6.28;;;3.80;;
59846;SDS011;45728;48.788;2.302;2022-11-20T11:01:55;7.43;;;4.22;;
59846;SDS011;45728;48.788;2.302;2022-11-20T11:04:38;6.53;;;4.05;;
59846;SDS011;45728;48.788;2.302;2022-11-20T11:09:59;6.60;;;3.33;;
59846;SDS011;45728;48.788;2.302;2022-11-20T11:12:25;6.80;;;3.80;;
59846;SDS011;45728;48.788;2.302;2022-11-20T11:14:54;6.07;;;3.58;;
59846;SDS011;45728;48.788;2.302;2022-11-20T11:22:45;4.60;;;3.10;;
59846;SDS011;45728;48.788;2.302;2022-11-20T11:25:33;5.78;;;3.20;;
59846;SDS011;45728;48.788;2.302;2022-11-20T11:28:19;5.28;;;3.50;;
59846;SDS011;45728;48.788;2.302;2022-11-20T11:30:47;6.03;;;2.60;;
59846;SDS011;45728;48.788;2.302;2022-11-20T11:33:23;5.97;;;3.25;;
59846;SDS011;45728;48.788;2.302;2022-11-20T11:41:00;3.78;;;2.78;;
59846;SDS011;45728;48.788;2.302;2022-11-20T11:43:33;4.35;;;2.95;;
59846;SDS011;45728;48.788;2.302;2022-11-20T11:48:59;3.22;;;2.47;;
59846;SDS011;45728;48.788;2.302;2022-11-20T11:51:32;4.13;;;2.72;;
59846;SDS011;45728;48.788;2.302;2022-11-20T11:54:05;3.60;;;2.63;;
59846;SDS011;45728;48.788;2.302;2022-11-20T11:56:45;2.95;;;2.50;;
59846;SDS011;45728;48.788;2.302;2022-11-20T11:59:14;3.65;;;2.80;;
59846;SDS011;45728;48.788;2.302;2022-11-20T12:02:03;3.00;;;2.70;;
59846;SDS011;45728;48.788;2.302;2022-11-20T12:04:44;3.47;;;2.70;;
59846;SDS011;45728;48.788;2.302;2022-11-20T12:07:24;2.90;;;2.50;;
59846;SDS011;45728;48.788;2.302;2022-11-20T12:10:20;6.28;;;3.60;;
59846;SDS011;45728;48.788;2.302;2022-11-20T12:12:58;5.20;;;3.42;;
59846;SDS011;45728;48.788;2.302;2022-11-20T12:15:30;5.35;;;3.50;;
59846;SDS011;45728;48.788;2.302;2022-11-20T12:17:58;4.87;;;2.90;;
59846;SDS011;45728;48.788;2.302;2022-11-20T12:20:35;3.40;;;3.10;;
59846;SDS011;45728;48.788;2.302;2022-11-20T12:23:16;5.65;;;3.47;;
59846;SDS011;45728;48.788;2.302;2022-11-20T12:25:54;4.85;;;3.38;;
59846;SDS011;45728;48.788;2.302;2022-11-20T12:28:44;4.25;;;3.15;;
59846;SDS011;45728;48.788;2.302;2022-11-20T12:34:43;5.45;;;3.88;;
59846;SDS011;45728;48.788;2.302;2022-11-20T12:39:48;5.55;;;3.92;;
59846;SDS011;45728;48.788;2.302;2022-11-20T12:45:46;4.35;;;3.15;;
59846;SDS011;45728;48.788;2.302;2022-11-20T13:00:02;5.20;;;3.38;;
59846;SDS011;45728;48.788;2.302;2022-11-20T13:02:38;6.40;;;3.65;;
59846;SDS011;45728;48.788;2.302;2022-11-20T13:08:00;5.82;;;3.60;;
59846;SDS011;45728;48.788;2.302;2022-11-20T13:13:16;12.82;;;3.92;;
59846;SDS011;45728;48.788;2.302;2022-11-20T13:15:52;6.65;;;3.85;;
59846;SDS011;45728;48.788;2.302;2022-11-20T13:18:26;5.38;;;4.07;;
59846;SDS011;45728;48.788;2.302;2022-11-20T13:20:54;6.05;;;4.25;;
59846;SDS011;45728;48.788;2.302;2022-11-20T13:23:24;7.78;;;4.00;;
59846;SDS011;45728;48.788;2.302;2022-11-20T13:29:07;5.30;;;4.05;;
59846;SDS011;45728;48.788;2.302;2022-11-20T13:31:38;5.93;;;3.75;;
59846;SDS011;45728;48.788;2.302;2022-11-20T13:34:09;6.97;;;4.10;;
59846;SDS011;45728;48.788;2.302;2022-11-20T13:36:48;8.15;;;4.30;;
59846;SDS011;45728;48.788;2.302;2022-11-20T13:39:25;5.53;;;3.78;;
59846;SDS011;45728;48.788;2.302;2022-11-20T13:41:56;5.30;;;4.00;;
59846;SDS011;45728;48.788;2.302;2022-11-20T13:44:46;7.03;;;3.80;;
59846;SDS011;45728;48.788;2.302;2022-11-20T13:47:19;5.90;;;4.10;;
59846;SDS011;45728;48.788;2.302;2022-11-20T13:49:47;4.75;;;3.05;;
59846;SDS011;45728;48.788;2.302;2022-11-20T14:01:21;8.75;;;5.55;;
59846;SDS011;45728;48.788;2.302;2022-11-20T14:03:50;7.57;;;4.20;;
59846;SDS011;45728;48.788;2.302;2022-11-20T14:06:34;5.43;;;2.75;;
59846;SDS011;45728;48.788;2.302;2022-11-20T14:09:10;6.93;;;4.20;;
59846;SDS011;45728;48.788;2.302;2022-11-20T14:11:50;9.40;;;4.78;;
59846;SDS011;45728;48.788;2.302;2022-11-20T14:14:17;8.65;;;4.93;;
59846;SDS011;45728;48.788;2.302;2022-11-20T14:16:44;7.88;;;4.60;;
59846;SDS011;45728;48.788;2.302;2022-11-20T14:19:19;8.70;;;4.60;;
59846;SDS011;45728;48.788;2.302;2022-11-20T14:21:52;7.28;;;4.18;;
59846;SDS011;45728;48.788;2.302;2022-11-20T14:24:38;10.98;;;5.28;;
59846;SDS011;45728;48.788;2.302;2022-11-20T14:27:04;6.82;;;4.25;;
59846;SDS011;45728;48.788;2.302;2022-11-20T14:29:37;6.38;;;4.38;;
59846;SDS011;45728;48.788;2.302;2022-11-20T14:32:04;8.77;;;4.00;;
59846;SDS011;45728;48.788;2.302;2022-11-20T14:34:31;8.38;;;4.40;;
59846;SDS011;45728;48.788;2.302;2022-11-20T14:37:04;7.80;;;4.13;;
59846;SDS011;45728;48.788;2.302;2022-11-20T14:39:37;6.78;;;4.00;;
59846;SDS011;45728;48.788;2.302;2022-11-20T14:42:16;11.48;;;4.35;;
59846;SDS011;45728;48.788;2.302;2022-11-20T14:44:46;12.52;;;3.75;;
59846;SDS011;45728;48.788;2.302;2022-11-20T14:47:15;16.65;;;5.03;;
59846;SDS011;45728;48.788;2.302;2022-11-20T14:49:48;9.95;;;4.00;;
59846;SDS011;45728;48.788;2.302;2022-11-20T14:52:16;9.27;;;4.15;;
59846;SDS011;45728;48.788;2.302;2022-11-20T14:54:50;13.45;;;4.47;;
59846;SDS011;45728;48.788;2.302;2022-11-20T14:59:45;13.43;;;4.35;;
59846;SDS011;45728;48.788;2.302;2022-11-20T15:02:12;14.05;;;4.22;;
59846;SDS011;45728;48.788;2.302;2022-11-20T15:04:45;14.68;;;5.03;;
59846;SDS011;45728;48.788;2.302;2022-11-20T15:07:22;14.82;;;4.50;;
59846;SDS011;45728;48.788;2.302;2022-11-20T15:10:27;12.35;;;4.57;;
59846;SDS011;45728;48.788;2.302;2022-11-20T15:12:53;16.17;;;4.35;;
59846;SDS011;45728;48.788;2.302;2022-11-20T15:17:53;10.48;;;3.83;;
59846;SDS011;45728;48.788;2.302;2022-11-20T15:20:20;17.70;;;4.82;;
59846;SDS011;45728;48.788;2.302;2022-11-20T15:22:52;10.60;;;4.63;;
59846;SDS011;45728;48.788;2.302;2022-11-20T15:25:18;15.73;;;5.07;;
59846;SDS011;45728;48.788;2.302;2022-11-20T15:27:45;16.38;;;4.93;;
59846;SDS011;45728;48.788;2.302;2022-11-20T15:30:15;13.77;;;4.43;;
59846;SDS011;45728;48.788;2.302;2022-11-20T15:32:44;16.45;;;4.72;;
59846;SDS011;45728;48.788;2.302;2022-11-20T15:35:11;10.93;;;3.92;;
59846;SDS011;45728;48.788;2.302;2022-11-20T15:37:38;12.85;;;4.13;;
59846;SDS011;45728;48.788;2.302;2022-11-20T15:40:06;13.82;;;4.60;;
59846;SDS011;45728;48.788;2.302;2022-11-20T15:42:33;14.13;;;4.53;;
59846;SDS011;45728;48.788;2.302;2022-11-20T15:45:00;12.50;;;4.35;;
59846;SDS011;45728;48.788;2.302;2022-11-20T15:47:27;10.90;;;3.90;;
59846;SDS011;45728;48.788;2.302;2022-11-20T15:49:56;9.38;;;3.58;;
59846;SDS011;45728;48.788;2.302;2022-11-20T15:52:22;10.18;;;3.97;;
59846;SDS011;45728;48.788;2.302;2022-11-20T15:54:48;8.85;;;3.13;;
59846;SDS011;45728;48.788;2.302;2022-11-20T15:57:14;8.15;;;3.10;;
59846;SDS011;45728;48.788;2.302;2022-11-20T15:59:40;7.97;;;2.80;;
59846;SDS011;45728;48.788;2.302;2022-11-20T16:02:10;10.32;;;3.20;;
59846;SDS011;45728;48.788;2.302;2022-11-20T16:04:37;7.13;;;2.90;;
59846;SDS011;45728;48.788;2.302;2022-11-20T16:07:03;8.52;;;2.97;;
59846;SDS011;45728;48.788;2.302;2022-11-20T16:09:29;9.60;;;2.60;;
59846;SDS011;45728;48.788;2.302;2022-11-20T16:11:55;7.85;;;2.65;;
59846;SDS011;45728;48.788;2.302;2022-11-20T16:14:25;9.95;;;3.13;;
59846;SDS011;45728;48.788;2.302;2022-11-20T16:17:10;7.28;;;2.70;;
59846;SDS011;45728;48.788;2.302;2022-11-20T16:19:37;8.55;;;3.20;;
59846;SDS011;45728;48.788;2.302;2022-11-20T16:22:03;12.48;;;3.45;;
59846;SDS011;45728;48.788;2.302;2022-11-20T16:24:30;7.18;;;2.78;;
59846;SDS011;45728;48.788;2.302;2022-11-20T16:26:56;8.82;;;3.42;;
59846;SDS011;45728;48.788;2.302;2022-11-20T16:29:22;8.80;;;3.40;;
59846;SDS011;45728;48.788;2.302;2022-11-20T16:31:48;8.15;;;3.08;;
59846;SDS011;45728;48.788;2.302;2022-11-20T16:34:15;11.05;;;4.05;;
59846;SDS011;45728;48.788;2.302;2022-11-20T16:36:44;9.48;;;3.50;;
59846;SDS011;45728;48.788;2.302;2022-11-20T16:39:10;10.85;;;4.55;;